Jackson Evers International Airport
KJAN : now visible

Airfield :











YOU CAN JOIN US ON...

 
LOGIN :

Register | Disclaimer

   EN    FR    IT 

 









Legend :    VFR   Marginal VFR   IFR   Intensive IFR   Very Intensive IFR
Visi :
Ceiling :
>= 8 km
>= 3000ft
5 to 8 km
1000 to 3000 ft
1500m to 5 km
500 to 1000 ft
800 to 1500m
200 to 500 ft
< 800m
< 200 ft
Symbols :   Thunderstorms  Fog  Heavy snow  Heavy precipitations  Wind > 20 kt







- Airport Elevation : 346 ft
- IATA code : JAN


KJAN - Jackson Evers International

CURRENT METAR :
  • 220954Z AUTO 16009KT 10SM OVC011 23/22 A2991 RMK AO2 SLP122 T02330217

EXPIRED METARs :
  • 220937Z AUTO 16008KT 10SM BKN011 23/21 A2991 RMK AO2 T02330211
  • 220854Z AUTO 15011KT 10SM FEW012 23/21 A2990 RMK AO2 SLP121 T02280211 53003
  • 220754Z AUTO 15009KT 10SM SCT013 23/21 A2990 RMK AO2 SLP120 T02330211

TAF KJAN
Valid from the 22 at 10:00 until the 23 at 06:00 UTC


220950Z 2210/2306 16012KT P6SM BKN015
FM221500 17012G22KT P6SM BKN040
FM222300 16011KT P6SM SKC
KZME FIR / North America



MET'MAP, your aeronautical weather chart ! - Copyright ORBIFLY December 2007 - Disclaimer

ORBIFLY MET'MAP TEAM :

Programming & Development : Alexandra Zaïnal
Concept & Development : Baudouin d'Aumeries
Co-Development & Prog : Marc-Olivier Méhu
Technical & hardware support : Manuel Goepfert

Contact : metmap@orbifly.com




SOURCES & CREDITS :

   NOAA       Earth
Advisory